createdAt,value
2023-02-12T06:42:10.845Z,101890.84
2023-02-12T06:45:25.260Z,101890.84
2023-02-12T06:48:39.465Z,101893.66
2023-02-12T06:51:53.795Z,101894.47
2023-02-12T06:55:08.787Z,101902.31
2023-02-12T06:58:24.471Z,101906.78
2023-02-12T07:01:38.836Z,101905.19
2023-02-12T07:04:53.195Z,101918.34
2023-02-12T07:08:07.354Z,101913.50
2023-02-12T07:11:24.346Z,101922.47
2023-02-12T07:14:40.322Z,101918.37
2023-02-12T07:17:54.553Z,101922.94
2023-02-12T07:21:09.542Z,101919.88
2023-02-12T07:24:23.853Z,101930.91
2023-02-12T07:27:38.543Z,101946.97
2023-02-12T07:30:54.226Z,101948.25
2023-02-12T07:34:08.521Z,101954.03
2023-02-12T07:37:23.172Z,101955.50
2023-02-12T07:40:37.433Z,101970.03
2023-02-12T07:43:55.465Z,101975.28
2023-02-12T07:47:11.055Z,101975.66
2023-02-12T07:50:25.244Z,101986.41
2023-02-12T07:53:39.488Z,101984.78
2023-02-12T07:56:53.807Z,101988.31
2023-02-12T08:00:09.295Z,101985.53
2023-02-12T08:03:25.010Z,101988.31
2023-02-12T08:06:39.936Z,101980.69
2023-02-12T08:18:16.471Z,101987.59
2023-02-12T08:21:32.105Z,101996.63
2023-02-12T08:24:46.251Z,102005.50
2023-02-12T08:28:00.433Z,102001.94
2023-02-12T08:31:15.622Z,102002.53
2023-02-12T08:34:30.467Z,102001.19
2023-02-12T08:37:46.920Z,102005.03
2023-02-12T08:44:46.117Z,101997.19
2023-02-12T08:48:00.293Z,101996.84
2023-02-12T08:51:15.345Z,101999.25
2023-02-12T08:54:31.618Z,102007.84
2023-02-12T08:57:45.958Z,102006.37
2023-02-12T09:05:11.506Z,102013.44
2023-02-12T09:08:25.627Z,102019.91
2023-02-12T09:11:41.251Z,102033.03
2023-02-12T09:14:55.403Z,102032.94
2023-02-12T09:18:09.604Z,102042.59
2023-02-12T09:21:23.756Z,102046.66
2023-02-12T09:24:39.490Z,102047.88
